sensor_id;sensor_type;location;lat;lon;timestamp;P1;durP1;ratioP1;P2;durP2;ratioP2
31037;SDS011;17702;47.590;7.666;2024-03-08T00:01:48;71.38;;;35.08;;
31037;SDS011;17702;47.590;7.666;2024-03-08T00:04:13;73.70;;;34.20;;
31037;SDS011;17702;47.590;7.666;2024-03-08T00:06:40;74.40;;;37.15;;
31037;SDS011;17702;47.590;7.666;2024-03-08T00:09:06;77.88;;;36.50;;
31037;SDS011;17702;47.590;7.666;2024-03-08T00:11:33;74.90;;;35.20;;
31037;SDS011;17702;47.590;7.666;2024-03-08T00:13:59;81.38;;;38.08;;
31037;SDS011;17702;47.590;7.666;2024-03-08T00:16:25;95.82;;;50.42;;
31037;SDS011;17702;47.590;7.666;2024-03-08T00:18:51;78.75;;;38.67;;
31037;SDS011;17702;47.590;7.666;2024-03-08T00:21:16;79.03;;;39.08;;
31037;SDS011;17702;47.590;7.666;2024-03-08T00:23:42;78.03;;;38.72;;
31037;SDS011;17702;47.590;7.666;2024-03-08T00:26:08;75.65;;;38.22;;
31037;SDS011;17702;47.590;7.666;2024-03-08T00:28:33;79.95;;;38.97;;
31037;SDS011;17702;47.590;7.666;2024-03-08T00:30:59;80.57;;;38.60;;
31037;SDS011;17702;47.590;7.666;2024-03-08T00:33:25;76.20;;;35.55;;
31037;SDS011;17702;47.590;7.666;2024-03-08T00:35:52;66.82;;;32.70;;
31037;SDS011;17702;47.590;7.666;2024-03-08T00:38:21;71.90;;;35.83;;
31037;SDS011;17702;47.590;7.666;2024-03-08T00:40:46;76.93;;;37.80;;
31037;SDS011;17702;47.590;7.666;2024-03-08T00:43:12;78.25;;;38.08;;
31037;SDS011;17702;47.590;7.666;2024-03-08T00:45:38;72.43;;;35.88;;
31037;SDS011;17702;47.590;7.666;2024-03-08T00:48:07;72.78;;;35.30;;
31037;SDS011;17702;47.590;7.666;2024-03-08T00:50:33;74.20;;;35.03;;
31037;SDS011;17702;47.590;7.666;2024-03-08T00:52:59;74.07;;;34.35;;
31037;SDS011;17702;47.590;7.666;2024-03-08T00:55:25;73.13;;;36.13;;
31037;SDS011;17702;47.590;7.666;2024-03-08T00:57:51;72.20;;;36.15;;
31037;SDS011;17702;47.590;7.666;2024-03-08T01:00:18;74.85;;;34.88;;
31037;SDS011;17702;47.590;7.666;2024-03-08T01:02:45;64.13;;;32.13;;
31037;SDS011;17702;47.590;7.666;2024-03-08T01:05:11;68.32;;;33.75;;
31037;SDS011;17702;47.590;7.666;2024-03-08T01:07:37;69.60;;;33.05;;
31037;SDS011;17702;47.590;7.666;2024-03-08T01:10:03;66.47;;;31.98;;
31037;SDS011;17702;47.590;7.666;2024-03-08T01:12:28;65.97;;;32.17;;
31037;SDS011;17702;47.590;7.666;2024-03-08T01:14:55;65.10;;;32.60;;
31037;SDS011;17702;47.590;7.666;2024-03-08T01:17:21;73.32;;;35.67;;
31037;SDS011;17702;47.590;7.666;2024-03-08T01:19:46;71.10;;;34.55;;
31037;SDS011;17702;47.590;7.666;2024-03-08T01:22:12;71.63;;;35.88;;
31037;SDS011;17702;47.590;7.666;2024-03-08T01:24:38;68.72;;;34.15;;
31037;SDS011;17702;47.590;7.666;2024-03-08T01:27:03;69.82;;;32.00;;
31037;SDS011;17702;47.590;7.666;2024-03-08T01:29:29;63.50;;;32.05;;
31037;SDS011;17702;47.590;7.666;2024-03-08T01:31:55;72.13;;;34.17;;
31037;SDS011;17702;47.590;7.666;2024-03-08T01:34:21;79.85;;;44.08;;
31037;SDS011;17702;47.590;7.666;2024-03-08T01:36:47;60.50;;;29.83;;
31037;SDS011;17702;47.590;7.666;2024-03-08T01:39:13;73.78;;;34.83;;
31037;SDS011;17702;47.590;7.666;2024-03-08T01:41:39;69.75;;;32.53;;
31037;SDS011;17702;47.590;7.666;2024-03-08T01:44:05;70.07;;;32.08;;
31037;SDS011;17702;47.590;7.666;2024-03-08T01:46:34;71.95;;;34.28;;
31037;SDS011;17702;47.590;7.666;2024-03-08T01:49:00;69.13;;;31.83;;
31037;SDS011;17702;47.590;7.666;2024-03-08T01:51:27;72.93;;;35.47;;
31037;SDS011;17702;47.590;7.666;2024-03-08T01:53:54;68.43;;;32.65;;
31037;SDS011;17702;47.590;7.666;2024-03-08T01:56:22;70.97;;;33.22;;
31037;SDS011;17702;47.590;7.666;2024-03-08T01:58:50;72.57;;;33.75;;
31037;SDS011;17702;47.590;7.666;2024-03-08T02:01:16;71.10;;;33.72;;
31037;SDS011;17702;47.590;7.666;2024-03-08T02:03:44;68.85;;;32.85;;
31037;SDS011;17702;47.590;7.666;2024-03-08T02:06:13;80.25;;;36.25;;
31037;SDS011;17702;47.590;7.666;2024-03-08T02:08:42;73.72;;;35.10;;
31037;SDS011;17702;47.590;7.666;2024-03-08T02:11:11;73.80;;;34.95;;
31037;SDS011;17702;47.590;7.666;2024-03-08T02:13:37;75.75;;;34.03;;
31037;SDS011;17702;47.590;7.666;2024-03-08T02:16:03;70.32;;;34.00;;
31037;SDS011;17702;47.590;7.666;2024-03-08T02:18:29;64.53;;;32.05;;
31037;SDS011;17702;47.590;7.666;2024-03-08T02:20:58;72.47;;;34.20;;
31037;SDS011;17702;47.590;7.666;2024-03-08T02:23:24;70.15;;;32.47;;
31037;SDS011;17702;47.590;7.666;2024-03-08T02:25:51;68.72;;;32.42;;
31037;SDS011;17702;47.590;7.666;2024-03-08T02:28:18;69.28;;;33.63;;
31037;SDS011;17702;47.590;7.666;2024-03-08T02:30:44;69.93;;;33.58;;
31037;SDS011;17702;47.590;7.666;2024-03-08T02:33:12;67.05;;;32.55;;
31037;SDS011;17702;47.590;7.666;2024-03-08T02:35:41;70.10;;;31.85;;
31037;SDS011;17702;47.590;7.666;2024-03-08T02:38:10;64.80;;;30.88;;
31037;SDS011;17702;47.590;7.666;2024-03-08T02:40:36;64.47;;;30.55;;
31037;SDS011;17702;47.590;7.666;2024-03-08T02:43:02;67.00;;;31.40;;
31037;SDS011;17702;47.590;7.666;2024-03-08T02:45:30;61.00;;;29.77;;
31037;SDS011;17702;47.590;7.666;2024-03-08T02:47:55;63.78;;;29.73;;
31037;SDS011;17702;47.590;7.666;2024-03-08T02:50:21;62.10;;;31.17;;
31037;SDS011;17702;47.590;7.666;2024-03-08T02:52:47;68.65;;;32.00;;
31037;SDS011;17702;47.590;7.666;2024-03-08T02:55:13;63.63;;;31.15;;
31037;SDS011;17702;47.590;7.666;2024-03-08T02:57:41;58.22;;;28.92;;
31037;SDS011;17702;47.590;7.666;2024-03-08T03:00:08;63.38;;;29.05;;
31037;SDS011;17702;47.590;7.666;2024-03-08T03:02:35;60.15;;;29.50;;
31037;SDS011;17702;47.590;7.666;2024-03-08T03:05:01;54.50;;;27.23;;
31037;SDS011;17702;47.590;7.666;2024-03-08T03:07:31;58.03;;;27.63;;
31037;SDS011;17702;47.590;7.666;2024-03-08T03:09:58;58.78;;;28.20;;
31037;SDS011;17702;47.590;7.666;2024-03-08T03:12:25;59.92;;;27.75;;
31037;SDS011;17702;47.590;7.666;2024-03-08T03:14:51;59.97;;;30.35;;
31037;SDS011;17702;47.590;7.666;2024-03-08T03:17:17;62.67;;;28.70;;
31037;SDS011;17702;47.590;7.666;2024-03-08T03:19:43;57.92;;;27.83;;
31037;SDS011;17702;47.590;7.666;2024-03-08T03:22:08;59.47;;;27.30;;
31037;SDS011;17702;47.590;7.666;2024-03-08T03:24:35;58.20;;;28.15;;
31037;SDS011;17702;47.590;7.666;2024-03-08T03:27:03;59.15;;;28.20;;
31037;SDS011;17702;47.590;7.666;2024-03-08T03:29:38;57.42;;;27.33;;
31037;SDS011;17702;47.590;7.666;2024-03-08T03:32:07;59.55;;;28.77;;
31037;SDS011;17702;47.590;7.666;2024-03-08T03:34:33;65.25;;;29.23;;
31037;SDS011;17702;47.590;7.666;2024-03-08T03:37:02;67.53;;;30.00;;
31037;SDS011;17702;47.590;7.666;2024-03-08T03:39:29;64.47;;;30.38;;
31037;SDS011;17702;47.590;7.666;2024-03-08T03:41:57;66.68;;;29.67;;
31037;SDS011;17702;47.590;7.666;2024-03-08T03:44:28;64.00;;;30.42;;
31037;SDS011;17702;47.590;7.666;2024-03-08T03:46:54;70.78;;;31.30;;
31037;SDS011;17702;47.590;7.666;2024-03-08T03:49:19;61.80;;;28.05;;
31037;SDS011;17702;47.590;7.666;2024-03-08T03:51:45;59.17;;;28.45;;
31037;SDS011;17702;47.590;7.666;2024-03-08T03:54:11;62.13;;;29.38;;
31037;SDS011;17702;47.590;7.666;2024-03-08T03:56:37;62.65;;;28.95;;
31037;SDS011;17702;47.590;7.666;2024-03-08T03:59:04;63.90;;;30.63;;
31037;SDS011;17702;47.590;7.666;2024-03-08T04:01:31;65.05;;;30.23;;
31037;SDS011;17702;47.590;7.666;2024-03-08T04:03:57;67.43;;;31.45;;
31037;SDS011;17702;47.590;7.666;2024-03-08T04:06:22;59.83;;;28.80;;
31037;SDS011;17702;47.590;7.666;2024-03-08T04:08:48;59.80;;;28.80;;
31037;SDS011;17702;47.590;7.666;2024-03-08T04:11:14;61.55;;;28.45;;
31037;SDS011;17702;47.590;7.666;2024-03-08T04:13:42;62.20;;;29.85;;
31037;SDS011;17702;47.590;7.666;2024-03-08T04:16:08;66.75;;;30.10;;
31037;SDS011;17702;47.590;7.666;2024-03-08T04:18:34;67.25;;;32.38;;
31037;SDS011;17702;47.590;7.666;2024-03-08T04:21:01;63.08;;;31.65;;
31037;SDS011;17702;47.590;7.666;2024-03-08T04:23:27;62.20;;;28.60;;
31037;SDS011;17702;47.590;7.666;2024-03-08T04:25:53;63.17;;;29.52;;
31037;SDS011;17702;47.590;7.666;2024-03-08T04:28:19;70.32;;;33.30;;
31037;SDS011;17702;47.590;7.666;2024-03-08T04:30:45;75.53;;;32.33;;
31037;SDS011;17702;47.590;7.666;2024-03-08T04:33:11;66.93;;;31.98;;
31037;SDS011;17702;47.590;7.666;2024-03-08T04:35:37;64.10;;;30.13;;
31037;SDS011;17702;47.590;7.666;2024-03-08T04:38:02;62.97;;;30.40;;
31037;SDS011;17702;47.590;7.666;2024-03-08T04:40:30;63.85;;;31.15;;
31037;SDS011;17702;47.590;7.666;2024-03-08T04:42:56;65.63;;;31.77;;
31037;SDS011;17702;47.590;7.666;2024-03-08T04:45:24;68.93;;;31.17;;
31037;SDS011;17702;47.590;7.666;2024-03-08T04:47:51;60.83;;;30.48;;
31037;SDS011;17702;47.590;7.666;2024-03-08T04:50:17;65.28;;;30.27;;
31037;SDS011;17702;47.590;7.666;2024-03-08T04:52:43;56.38;;;28.63;;
31037;SDS011;17702;47.590;7.666;2024-03-08T04:55:09;61.80;;;29.30;;
31037;SDS011;17702;47.590;7.666;2024-03-08T04:57:34;64.90;;;30.08;;
31037;SDS011;17702;47.590;7.666;2024-03-08T05:00:01;60.72;;;28.75;;
31037;SDS011;17702;47.590;7.666;2024-03-08T05:02:36;57.83;;;29.33;;
31037;SDS011;17702;47.590;7.666;2024-03-08T05:05:04;61.95;;;28.40;;
31037;SDS011;17702;47.590;7.666;2024-03-08T05:07:31;63.10;;;29.48;;
31037;SDS011;17702;47.590;7.666;2024-03-08T05:09:58;55.08;;;27.25;;
31037;SDS011;17702;47.590;7.666;2024-03-08T05:12:24;54.38;;;27.30;;
31037;SDS011;17702;47.590;7.666;2024-03-08T05:14:49;58.58;;;28.17;;
31037;SDS011;17702;47.590;7.666;2024-03-08T05:17:15;55.47;;;27.42;;
31037;SDS011;17702;47.590;7.666;2024-03-08T05:19:44;55.40;;;28.25;;
31037;SDS011;17702;47.590;7.666;2024-03-08T05:22:09;54.38;;;27.40;;
31037;SDS011;17702;47.590;7.666;2024-03-08T05:24:35;53.00;;;26.00;;
31037;SDS011;17702;47.590;7.666;2024-03-08T05:27:01;57.78;;;27.13;;
31037;SDS011;17702;47.590;7.666;2024-03-08T05:29:28;56.50;;;27.45;;
31037;SDS011;17702;47.590;7.666;2024-03-08T05:31:54;59.15;;;27.83;;
31037;SDS011;17702;47.590;7.666;2024-03-08T05:34:20;51.17;;;25.88;;
31037;SDS011;17702;47.590;7.666;2024-03-08T05:36:47;53.63;;;25.77;;
31037;SDS011;17702;47.590;7.666;2024-03-08T05:39:15;54.42;;;26.27;;
31037;SDS011;17702;47.590;7.666;2024-03-08T05:41:42;51.20;;;26.45;;
31037;SDS011;17702;47.590;7.666;2024-03-08T05:44:08;52.10;;;25.67;;
31037;SDS011;17702;47.590;7.666;2024-03-08T05:46:35;51.30;;;24.80;;
31037;SDS011;17702;47.590;7.666;2024-03-08T05:49:02;50.78;;;25.75;;
31037;SDS011;17702;47.590;7.666;2024-03-08T05:51:34;51.00;;;25.05;;
31037;SDS011;17702;47.590;7.666;2024-03-08T05:54:01;54.67;;;26.75;;
31037;SDS011;17702;47.590;7.666;2024-03-08T05:56:35;51.13;;;26.08;;
31037;SDS011;17702;47.590;7.666;2024-03-08T05:59:01;53.80;;;25.38;;
31037;SDS011;17702;47.590;7.666;2024-03-08T06:01:27;53.30;;;24.92;;
31037;SDS011;17702;47.590;7.666;2024-03-08T06:03:54;53.85;;;24.95;;
31037;SDS011;17702;47.590;7.666;2024-03-08T06:06:23;50.08;;;23.98;;
31037;SDS011;17702;47.590;7.666;2024-03-08T06:08:50;49.17;;;24.95;;
31037;SDS011;17702;47.590;7.666;2024-03-08T06:11:16;55.17;;;25.80;;
31037;SDS011;17702;47.590;7.666;2024-03-08T06:13:43;46.95;;;23.98;;
31037;SDS011;17702;47.590;7.666;2024-03-08T06:16:09;52.63;;;23.85;;
31037;SDS011;17702;47.590;7.666;2024-03-08T06:18:35;48.38;;;25.67;;
31037;SDS011;17702;47.590;7.666;2024-03-08T06:21:07;46.72;;;22.95;;
31037;SDS011;17702;47.590;7.666;2024-03-08T06:23:34;49.50;;;24.20;;
31037;SDS011;17702;47.590;7.666;2024-03-08T06:26:05;47.40;;;22.75;;
31037;SDS011;17702;47.590;7.666;2024-03-08T06:28:31;53.90;;;24.95;;
31037;SDS011;17702;47.590;7.666;2024-03-08T06:30:57;47.40;;;24.25;;
31037;SDS011;17702;47.590;7.666;2024-03-08T06:33:26;46.10;;;24.27;;
31037;SDS011;17702;47.590;7.666;2024-03-08T06:35:52;45.67;;;24.33;;
31037;SDS011;17702;47.590;7.666;2024-03-08T06:38:22;44.22;;;22.58;;
31037;SDS011;17702;47.590;7.666;2024-03-08T06:40:48;40.55;;;21.85;;
31037;SDS011;17702;47.590;7.666;2024-03-08T06:43:14;48.08;;;25.23;;
31037;SDS011;17702;47.590;7.666;2024-03-08T06:45:42;50.20;;;24.60;;
31037;SDS011;17702;47.590;7.666;2024-03-08T06:48:13;54.03;;;24.65;;
31037;SDS011;17702;47.590;7.666;2024-03-08T06:50:42;46.15;;;24.08;;
31037;SDS011;17702;47.590;7.666;2024-03-08T06:53:12;49.67;;;24.42;;
31037;SDS011;17702;47.590;7.666;2024-03-08T06:55:38;54.30;;;24.30;;
31037;SDS011;17702;47.590;7.666;2024-03-08T06:58:04;49.15;;;24.85;;
31037;SDS011;17702;47.590;7.666;2024-03-08T07:00:30;48.47;;;24.45;;
31037;SDS011;17702;47.590;7.666;2024-03-08T07:02:56;50.55;;;25.85;;
31037;SDS011;17702;47.590;7.666;2024-03-08T07:05:25;45.95;;;23.92;;
31037;SDS011;17702;47.590;7.666;2024-03-08T07:07:52;50.17;;;24.45;;
31037;SDS011;17702;47.590;7.666;2024-03-08T07:10:17;46.47;;;23.83;;
31037;SDS011;17702;47.590;7.666;2024-03-08T07:12:44;49.92;;;24.75;;
31037;SDS011;17702;47.590;7.666;2024-03-08T07:15:10;47.17;;;23.95;;
31037;SDS011;17702;47.590;7.666;2024-03-08T07:17:39;51.90;;;25.15;;
31037;SDS011;17702;47.590;7.666;2024-03-08T07:20:06;51.00;;;23.95;;
31037;SDS011;17702;47.590;7.666;2024-03-08T07:22:37;47.08;;;23.80;;
31037;SDS011;17702;47.590;7.666;2024-03-08T07:25:04;45.92;;;23.20;;
31037;SDS011;17702;47.590;7.666;2024-03-08T07:27:50;45.00;;;22.15;;
31037;SDS011;17702;47.590;7.666;2024-03-08T07:30:16;47.25;;;22.38;;
31037;SDS011;17702;47.590;7.666;2024-03-08T07:33:02;46.95;;;22.63;;
31037;SDS011;17702;47.590;7.666;2024-03-08T07:35:28;46.00;;;22.63;;
31037;SDS011;17702;47.590;7.666;2024-03-08T07:37:54;45.05;;;22.33;;
31037;SDS011;17702;47.590;7.666;2024-03-08T07:40:23;46.53;;;23.83;;
31037;SDS011;17702;47.590;7.666;2024-03-08T07:42:49;50.60;;;23.90;;
31037;SDS011;17702;47.590;7.666;2024-03-08T07:45:16;49.33;;;23.80;;
31037;SDS011;17702;47.590;7.666;2024-03-08T07:47:42;45.83;;;22.60;;
31037;SDS011;17702;47.590;7.666;2024-03-08T07:50:08;45.63;;;22.88;;
31037;SDS011;17702;47.590;7.666;2024-03-08T07:52:34;44.30;;;22.15;;
31037;SDS011;17702;47.590;7.666;2024-03-08T07:55:01;43.88;;;22.63;;
31037;SDS011;17702;47.590;7.666;2024-03-08T07:57:30;39.45;;;20.50;;
31037;SDS011;17702;47.590;7.666;2024-03-08T07:59:57;46.33;;;23.02;;
31037;SDS011;17702;47.590;7.666;2024-03-08T08:02:23;45.47;;;22.33;;
31037;SDS011;17702;47.590;7.666;2024-03-08T08:04:48;48.42;;;22.65;;
31037;SDS011;17702;47.590;7.666;2024-03-08T08:07:14;41.97;;;21.58;;
31037;SDS011;17702;47.590;7.666;2024-03-08T08:09:40;46.70;;;22.15;;
31037;SDS011;17702;47.590;7.666;2024-03-08T08:12:07;44.00;;;22.88;;
31037;SDS011;17702;47.590;7.666;2024-03-08T08:14:40;48.60;;;23.13;;
31037;SDS011;17702;47.590;7.666;2024-03-08T08:17:06;47.35;;;22.45;;
31037;SDS011;17702;47.590;7.666;2024-03-08T08:19:33;45.60;;;22.90;;
31037;SDS011;17702;47.590;7.666;2024-03-08T08:22:00;43.03;;;21.42;;
31037;SDS011;17702;47.590;7.666;2024-03-08T08:24:27;50.47;;;25.00;;
31037;SDS011;17702;47.590;7.666;2024-03-08T08:26:53;46.50;;;23.63;;
31037;SDS011;17702;47.590;7.666;2024-03-08T08:29:18;43.50;;;22.10;;
31037;SDS011;17702;47.590;7.666;2024-03-08T08:31:45;47.88;;;22.38;;
31037;SDS011;17702;47.590;7.666;2024-03-08T08:34:11;50.10;;;22.90;;
31037;SDS011;17702;47.590;7.666;2024-03-08T08:36:38;42.45;;;19.92;;
31037;SDS011;17702;47.590;7.666;2024-03-08T08:39:04;37.05;;;19.17;;
31037;SDS011;17702;47.590;7.666;2024-03-08T08:41:37;31.60;;;16.02;;
31037;SDS011;17702;47.590;7.666;2024-03-08T08:44:03;40.97;;;20.25;;
31037;SDS011;17702;47.590;7.666;2024-03-08T08:46:28;41.53;;;21.40;;
31037;SDS011;17702;47.590;7.666;2024-03-08T08:48:54;42.50;;;23.13;;
31037;SDS011;17702;47.590;7.666;2024-03-08T08:51:20;43.78;;;22.85;;
31037;SDS011;17702;47.590;7.666;2024-03-08T08:53:46;33.25;;;19.05;;
31037;SDS011;17702;47.590;7.666;2024-03-08T08:56:13;42.70;;;24.35;;
31037;SDS011;17702;47.590;7.666;2024-03-08T08:58:41;37.78;;;21.08;;
31037;SDS011;17702;47.590;7.666;2024-03-08T09:01:10;35.95;;;19.13;;
31037;SDS011;17702;47.590;7.666;2024-03-08T09:03:36;36.92;;;20.08;;
31037;SDS011;17702;47.590;7.666;2024-03-08T09:06:03;35.38;;;17.92;;
31037;SDS011;17702;47.590;7.666;2024-03-08T09:08:29;37.05;;;19.35;;
31037;SDS011;17702;47.590;7.666;2024-03-08T09:10:55;31.05;;;17.20;;
31037;SDS011;17702;47.590;7.666;2024-03-08T09:13:21;37.88;;;20.55;;
31037;SDS011;17702;47.590;7.666;2024-03-08T09:15:46;35.97;;;19.83;;
31037;SDS011;17702;47.590;7.666;2024-03-08T09:18:12;44.22;;;22.75;;
31037;SDS011;17702;47.590;7.666;2024-03-08T09:20:38;37.28;;;20.70;;
31037;SDS011;17702;47.590;7.666;2024-03-08T09:23:06;45.95;;;22.67;;
31037;SDS011;17702;47.590;7.666;2024-03-08T09:25:31;45.33;;;21.55;;
31037;SDS011;17702;47.590;7.666;2024-03-08T09:27:57;41.35;;;22.13;;
31037;SDS011;17702;47.590;7.666;2024-03-08T09:30:23;43.50;;;22.67;;
31037;SDS011;17702;47.590;7.666;2024-03-08T09:32:49;37.20;;;21.20;;
31037;SDS011;17702;47.590;7.666;2024-03-08T09:35:16;44.08;;;23.15;;
31037;SDS011;17702;47.590;7.666;2024-03-08T09:37:41;49.78;;;24.90;;
31037;SDS011;17702;47.590;7.666;2024-03-08T09:40:07;51.55;;;29.58;;
31037;SDS011;17702;47.590;7.666;2024-03-08T09:42:40;43.03;;;22.60;;
31037;SDS011;17702;47.590;7.666;2024-03-08T09:45:10;37.42;;;20.90;;
31037;SDS011;17702;47.590;7.666;2024-03-08T09:47:38;42.72;;;22.63;;
31037;SDS011;17702;47.590;7.666;2024-03-08T09:50:06;39.45;;;20.40;;
31037;SDS011;17702;47.590;7.666;2024-03-08T09:52:34;41.67;;;21.52;;
31037;SDS011;17702;47.590;7.666;2024-03-08T09:55:11;37.42;;;22.25;;
31037;SDS011;17702;47.590;7.666;2024-03-08T09:57:37;35.92;;;20.55;;
31037;SDS011;17702;47.590;7.666;2024-03-08T10:00:03;39.10;;;20.23;;
31037;SDS011;17702;47.590;7.666;2024-03-08T10:02:49;36.35;;;20.42;;
31037;SDS011;17702;47.590;7.666;2024-03-08T10:05:17;35.78;;;20.85;;
31037;SDS011;17702;47.590;7.666;2024-03-08T10:07:43;39.65;;;22.58;;
31037;SDS011;17702;47.590;7.666;2024-03-08T10:10:09;35.40;;;20.48;;
31037;SDS011;17702;47.590;7.666;2024-03-08T10:12:37;35.67;;;21.20;;
31037;SDS011;17702;47.590;7.666;2024-03-08T10:15:08;40.10;;;22.02;;
31037;SDS011;17702;47.590;7.666;2024-03-08T10:17:34;32.85;;;20.25;;
31037;SDS011;17702;47.590;7.666;2024-03-08T10:20:00;38.72;;;22.40;;
31037;SDS011;17702;47.590;7.666;2024-03-08T10:22:26;35.78;;;21.13;;
31037;SDS011;17702;47.590;7.666;2024-03-08T10:24:51;36.80;;;19.58;;
31037;SDS011;17702;47.590;7.666;2024-03-08T10:27:17;34.00;;;19.42;;
31037;SDS011;17702;47.590;7.666;2024-03-08T10:29:46;30.20;;;18.48;;
31037;SDS011;17702;47.590;7.666;2024-03-08T10:32:12;31.90;;;19.35;;
31037;SDS011;17702;47.590;7.666;2024-03-08T10:34:38;32.38;;;20.17;;
31037;SDS011;17702;47.590;7.666;2024-03-08T10:37:04;36.20;;;19.95;;
31037;SDS011;17702;47.590;7.666;2024-03-08T10:39:34;35.80;;;20.05;;
31037;SDS011;17702;47.590;7.666;2024-03-08T10:42:02;35.63;;;20.83;;
31037;SDS011;17702;47.590;7.666;2024-03-08T10:49:45;38.25;;;21.42;;
31037;SDS011;17702;47.590;7.666;2024-03-08T10:52:33;32.58;;;19.48;;
31037;SDS011;17702;47.590;7.666;2024-03-08T10:55:00;33.05;;;18.95;;
31037;SDS011;17702;47.590;7.666;2024-03-08T10:57:27;34.15;;;19.52;;
31037;SDS011;17702;47.590;7.666;2024-03-08T10:59:53;34.90;;;20.45;;
31037;SDS011;17702;47.590;7.666;2024-03-08T11:02:20;35.10;;;20.10;;
31037;SDS011;17702;47.590;7.666;2024-03-08T11:04:46;32.47;;;18.75;;
31037;SDS011;17702;47.590;7.666;2024-03-08T11:07:14;32.15;;;18.33;;
31037;SDS011;17702;47.590;7.666;2024-03-08T11:09:43;31.85;;;18.45;;
31037;SDS011;17702;47.590;7.666;2024-03-08T11:12:18;31.30;;;18.77;;
31037;SDS011;17702;47.590;7.666;2024-03-08T11:14:45;33.03;;;19.88;;
31037;SDS011;17702;47.590;7.666;2024-03-08T11:17:40;29.88;;;19.38;;
31037;SDS011;17702;47.590;7.666;2024-03-08T11:25:10;31.77;;;19.95;;
31037;SDS011;17702;47.590;7.666;2024-03-08T11:28:11;34.53;;;19.95;;
31037;SDS011;17702;47.590;7.666;2024-03-08T11:33:24;33.63;;;19.52;;
31037;SDS011;17702;47.590;7.666;2024-03-08T11:38:44;29.92;;;17.70;;
31037;SDS011;17702;47.590;7.666;2024-03-08T11:41:13;29.98;;;18.52;;
31037;SDS011;17702;47.590;7.666;2024-03-08T11:43:46;35.63;;;20.33;;
31037;SDS011;17702;47.590;7.666;2024-03-08T11:46:12;34.17;;;20.02;;
31037;SDS011;17702;47.590;7.666;2024-03-08T11:48:39;35.45;;;23.45;;
31037;SDS011;17702;47.590;7.666;2024-03-08T11:51:11;38.58;;;22.58;;
31037;SDS011;17702;47.590;7.666;2024-03-08T11:53:38;32.63;;;18.85;;
31037;SDS011;17702;47.590;7.666;2024-03-08T11:56:08;32.50;;;19.58;;
31037;SDS011;17702;47.590;7.666;2024-03-08T11:58:36;33.20;;;19.42;;
31037;SDS011;17702;47.590;7.666;2024-03-08T12:01:05;30.63;;;18.33;;
31037;SDS011;17702;47.590;7.666;2024-03-08T12:03:32;30.88;;;19.25;;
31037;SDS011;17702;47.590;7.666;2024-03-08T12:05:59;31.95;;;19.30;;
31037;SDS011;17702;47.590;7.666;2024-03-08T12:08:25;29.98;;;18.10;;
31037;SDS011;17702;47.590;7.666;2024-03-08T12:10:53;31.90;;;18.15;;
31037;SDS011;17702;47.590;7.666;2024-03-08T12:15:50;33.25;;;19.42;;
31037;SDS011;17702;47.590;7.666;2024-03-08T12:18:16;34.75;;;18.38;;
31037;SDS011;17702;47.590;7.666;2024-03-08T12:20:42;31.50;;;18.90;;
31037;SDS011;17702;47.590;7.666;2024-03-08T12:23:14;31.35;;;18.90;;
31037;SDS011;17702;47.590;7.666;2024-03-08T12:25:41;29.08;;;18.25;;
31037;SDS011;17702;47.590;7.666;2024-03-08T12:28:10;31.70;;;19.08;;
31037;SDS011;17702;47.590;7.666;2024-03-08T12:30:48;33.30;;;18.45;;
31037;SDS011;17702;47.590;7.666;2024-03-08T12:33:16;29.52;;;18.73;;
31037;SDS011;17702;47.590;7.666;2024-03-08T12:35:49;31.30;;;18.65;;
31037;SDS011;17702;47.590;7.666;2024-03-08T12:38:18;37.08;;;19.27;;
31037;SDS011;17702;47.590;7.666;2024-03-08T12:40:49;32.05;;;18.50;;
31037;SDS011;17702;47.590;7.666;2024-03-08T12:43:15;32.97;;;17.17;;
31037;SDS011;17702;47.590;7.666;2024-03-08T12:45:41;31.50;;;18.58;;
31037;SDS011;17702;47.590;7.666;2024-03-08T12:48:12;26.48;;;16.90;;
31037;SDS011;17702;47.590;7.666;2024-03-08T12:50:41;29.75;;;18.45;;
31037;SDS011;17702;47.590;7.666;2024-03-08T12:53:12;31.92;;;17.45;;
31037;SDS011;17702;47.590;7.666;2024-03-08T12:55:38;28.67;;;17.65;;
31037;SDS011;17702;47.590;7.666;2024-03-08T12:58:05;30.00;;;18.17;;
31037;SDS011;17702;47.590;7.666;2024-03-08T13:00:32;27.08;;;17.08;;
31037;SDS011;17702;47.590;7.666;2024-03-08T13:03:01;29.75;;;18.23;;
31037;SDS011;17702;47.590;7.666;2024-03-08T13:05:27;27.58;;;16.88;;
31037;SDS011;17702;47.590;7.666;2024-03-08T13:07:53;32.75;;;20.63;;
31037;SDS011;17702;47.590;7.666;2024-03-08T13:10:19;28.55;;;17.52;;
31037;SDS011;17702;47.590;7.666;2024-03-08T13:12:45;29.38;;;17.98;;
31037;SDS011;17702;47.590;7.666;2024-03-08T13:15:11;28.73;;;17.42;;
31037;SDS011;17702;47.590;7.666;2024-03-08T13:17:44;30.38;;;17.95;;
31037;SDS011;17702;47.590;7.666;2024-03-08T13:20:11;28.05;;;17.95;;
31037;SDS011;17702;47.590;7.666;2024-03-08T13:22:43;27.23;;;17.58;;
31037;SDS011;17702;47.590;7.666;2024-03-08T13:25:10;31.27;;;18.00;;
31037;SDS011;17702;47.590;7.666;2024-03-08T13:27:39;31.15;;;19.23;;
31037;SDS011;17702;47.590;7.666;2024-03-08T13:30:07;27.58;;;18.13;;
31037;SDS011;17702;47.590;7.666;2024-03-08T13:32:38;29.52;;;17.70;;
31037;SDS011;17702;47.590;7.666;2024-03-08T13:35:04;26.73;;;17.02;;
31037;SDS011;17702;47.590;7.666;2024-03-08T13:37:37;27.02;;;16.55;;
31037;SDS011;17702;47.590;7.666;2024-03-08T13:40:04;27.48;;;18.17;;
31037;SDS011;17702;47.590;7.666;2024-03-08T13:42:31;28.05;;;16.30;;
31037;SDS011;17702;47.590;7.666;2024-03-08T13:44:56;26.30;;;16.23;;
31037;SDS011;17702;47.590;7.666;2024-03-08T13:47:22;25.85;;;16.42;;
31037;SDS011;17702;47.590;7.666;2024-03-08T13:49:49;30.80;;;18.65;;
31037;SDS011;17702;47.590;7.666;2024-03-08T13:52:15;31.45;;;17.65;;
31037;SDS011;17702;47.590;7.666;2024-03-08T13:54:41;28.48;;;17.95;;
31037;SDS011;17702;47.590;7.666;2024-03-08T13:57:07;26.10;;;17.73;;
31037;SDS011;17702;47.590;7.666;2024-03-08T13:59:33;26.55;;;17.52;;
31037;SDS011;17702;47.590;7.666;2024-03-08T14:02:00;27.10;;;17.58;;
31037;SDS011;17702;47.590;7.666;2024-03-08T14:04:27;27.70;;;17.70;;
31037;SDS011;17702;47.590;7.666;2024-03-08T14:06:53;27.45;;;17.80;;
31037;SDS011;17702;47.590;7.666;2024-03-08T14:09:25;28.17;;;17.30;;
31037;SDS011;17702;47.590;7.666;2024-03-08T14:11:54;24.40;;;17.00;;
31037;SDS011;17702;47.590;7.666;2024-03-08T14:14:23;31.80;;;17.88;;
31037;SDS011;17702;47.590;7.666;2024-03-08T14:16:49;33.55;;;19.40;;
31037;SDS011;17702;47.590;7.666;2024-03-08T14:19:20;26.60;;;17.25;;
31037;SDS011;17702;47.590;7.666;2024-03-08T14:21:46;66.10;;;46.78;;
31037;SDS011;17702;47.590;7.666;2024-03-08T14:24:13;24.35;;;16.05;;
31037;SDS011;17702;47.590;7.666;2024-03-08T14:26:40;26.00;;;16.25;;
31037;SDS011;17702;47.590;7.666;2024-03-08T14:29:07;25.83;;;16.33;;
31037;SDS011;17702;47.590;7.666;2024-03-08T14:31:34;22.45;;;15.38;;
31037;SDS011;17702;47.590;7.666;2024-03-08T14:34:01;25.85;;;15.20;;
31037;SDS011;17702;47.590;7.666;2024-03-08T14:36:28;20.20;;;14.13;;
31037;SDS011;17702;47.590;7.666;2024-03-08T14:38:56;25.30;;;15.00;;
31037;SDS011;17702;47.590;7.666;2024-03-08T14:41:22;23.70;;;16.42;;